createdAt,value
2018-09-16T00:00:02.546Z,14.62
2018-09-16T00:01:02.529Z,14.6
2018-09-16T00:02:02.608Z,14.6
2018-09-16T00:03:02.644Z,14.64
2018-09-16T00:04:02.517Z,14.62
2018-09-16T00:05:02.505Z,14.66
2018-09-16T00:06:02.504Z,14.62
2018-09-16T00:07:02.490Z,14.62
2018-09-16T00:08:02.561Z,14.62
2018-09-16T00:09:02.531Z,14.63
2018-09-16T00:10:02.659Z,14.62
2018-09-16T00:11:02.546Z,14.62
2018-09-16T00:12:02.709Z,14.64
2018-09-16T00:13:02.495Z,14.63
2018-09-16T00:14:02.733Z,14.6
2018-09-16T00:15:02.502Z,14.62
2018-09-16T00:16:03.566Z,14.6
2018-09-16T00:17:02.483Z,14.62
2018-09-16T00:18:02.481Z,14.6
2018-09-16T00:19:02.587Z,14.59
2018-09-16T00:20:02.520Z,14.58
2018-09-16T00:21:02.647Z,14.56
2018-09-16T00:22:02.491Z,14.56
2018-09-16T00:23:02.518Z,14.56
2018-09-16T00:24:02.711Z,14.56
2018-09-16T00:25:02.499Z,14.55
2018-09-16T00:26:02.592Z,14.53
2018-09-16T00:27:02.586Z,14.48
2018-09-16T00:28:02.523Z,14.49
2018-09-16T00:29:02.546Z,14.51
2018-09-16T00:30:02.549Z,14.51
2018-09-16T00:31:02.746Z,14.48
2018-09-16T00:32:02.700Z,14.48
2018-09-16T00:33:02.689Z,14.46
2018-09-16T00:34:02.529Z,14.43
2018-09-16T00:35:02.523Z,14.42
2018-09-16T00:36:02.562Z,14.39
2018-09-16T00:37:02.660Z,14.38
2018-09-16T00:38:02.537Z,14.39
2018-09-16T00:39:02.609Z,14.39
2018-09-16T00:40:02.526Z,14.38
2018-09-16T00:41:03.144Z,14.39
2018-09-16T00:42:02.495Z,14.35
2018-09-16T00:43:02.643Z,14.31
2018-09-16T00:44:02.580Z,14.27
2018-09-16T00:45:02.563Z,14.21
2018-09-16T00:46:02.556Z,14.19
2018-09-16T00:47:02.516Z,14.15
2018-09-16T00:48:02.493Z,14.14
2018-09-16T00:49:02.603Z,14.12
2018-09-16T00:50:02.540Z,14.08
2018-09-16T00:51:02.514Z,14.11
2018-09-16T00:52:02.565Z,14.1
2018-09-16T00:53:02.499Z,14.12
2018-09-16T00:54:02.504Z,14.11
2018-09-16T00:55:02.535Z,14.1
2018-09-16T00:56:02.555Z,14.12
2018-09-16T00:57:02.543Z,14.14
2018-09-16T00:58:02.513Z,14.14
2018-09-16T00:59:02.527Z,14.15
2018-09-16T01:00:02.603Z,14.12
2018-09-16T01:01:02.556Z,14.14
2018-09-16T01:02:02.679Z,14.11
2018-09-16T01:03:02.519Z,14.1
2018-09-16T01:04:02.586Z,14.05
2018-09-16T01:05:02.807Z,14.04
2018-09-16T01:06:02.542Z,14.01
2018-09-16T01:07:02.556Z,13.98
2018-09-16T01:08:02.580Z,14
2018-09-16T01:09:02.636Z,14.01
2018-09-16T01:10:02.552Z,13.98
2018-09-16T01:11:02.519Z,13.97
2018-09-16T01:12:02.537Z,13.97
2018-09-16T01:13:02.535Z,14
2018-09-16T01:14:02.591Z,13.98
2018-09-16T01:15:02.589Z,13.97
2018-09-16T01:16:02.610Z,14.02
2018-09-16T01:17:02.677Z,14.01
2018-09-16T01:18:02.530Z,14.02
2018-09-16T01:19:02.654Z,14.02
2018-09-16T01:20:02.641Z,14.05
2018-09-16T01:21:02.633Z,14.02
2018-09-16T01:22:02.544Z,14.02
2018-09-16T01:23:02.635Z,14.01
2018-09-16T01:24:02.659Z,14.01
2018-09-16T01:25:02.610Z,13.97
2018-09-16T01:26:02.588Z,13.98
2018-09-16T01:27:02.526Z,13.96
2018-09-16T01:28:03.033Z,13.94
2018-09-16T01:29:02.571Z,13.91
2018-09-16T01:30:02.520Z,13.89
2018-09-16T01:31:02.556Z,13.87
2018-09-16T01:32:02.716Z,13.86
2018-09-16T01:33:02.669Z,13.87
2018-09-16T01:34:02.593Z,13.84
2018-09-16T01:35:02.526Z,13.87
2018-09-16T01:36:02.553Z,13.84
2018-09-16T01:37:02.785Z,13.86
2018-09-16T01:38:02.690Z,13.84
2018-09-16T01:39:02.529Z,13.8
2018-09-16T01:40:02.558Z,13.77
2018-09-16T01:41:02.762Z,13.74
2018-09-16T01:42:02.576Z,13.74
2018-09-16T01:43:02.660Z,13.76
2018-09-16T01:44:02.527Z,13.74
2018-09-16T01:45:02.594Z,13.73
2018-09-16T01:46:03.079Z,13.7
2018-09-16T01:47:02.563Z,13.7
2018-09-16T01:48:02.612Z,13.66
2018-09-16T01:49:02.574Z,13.69
2018-09-16T01:50:02.559Z,13.64
2018-09-16T01:51:02.573Z,13.63
2018-09-16T01:52:02.545Z,13.64
2018-09-16T01:53:02.580Z,13.6
2018-09-16T01:54:02.572Z,13.57
2018-09-16T01:55:02.541Z,13.56
2018-09-16T01:56:02.737Z,13.52
2018-09-16T01:57:02.663Z,13.43
2018-09-16T01:58:02.570Z,13.42
2018-09-16T01:59:02.593Z,13.36
2018-09-16T02:00:02.738Z,13.34
2018-09-16T02:01:02.944Z,13.32
2018-09-16T02:02:02.571Z,13.29
2018-09-16T02:03:02.552Z,13.29
2018-09-16T02:04:02.611Z,13.29
2018-09-16T02:05:02.559Z,13.29
2018-09-16T02:06:02.567Z,13.27
2018-09-16T02:07:02.599Z,13.27
2018-09-16T02:08:02.537Z,13.24
2018-09-16T02:09:02.574Z,13.24
2018-09-16T02:10:02.558Z,13.25
2018-09-16T02:11:02.536Z,13.22
2018-09-16T02:12:02.581Z,13.22
2018-09-16T02:13:02.547Z,13.18
2018-09-16T02:14:02.553Z,13.14
2018-09-16T02:15:02.532Z,13.07
2018-09-16T02:16:02.544Z,13.06
2018-09-16T02:17:02.609Z,13.01
2018-09-16T02:18:02.569Z,12.93
2018-09-16T02:19:02.770Z,12.91
2018-09-16T02:20:02.555Z,12.87
2018-09-16T02:21:02.575Z,12.86
2018-09-16T02:22:02.633Z,12.76
2018-09-16T02:23:02.703Z,12.77
2018-09-16T02:24:02.692Z,12.72
2018-09-16T02:25:02.595Z,12.66
2018-09-16T02:26:02.920Z,12.67
2018-09-16T02:27:02.543Z,12.7
2018-09-16T02:28:02.690Z,12.63
2018-09-16T02:29:02.698Z,12.63
2018-09-16T02:30:02.578Z,12.6
2018-09-16T02:31:02.612Z,12.59
2018-09-16T02:32:02.594Z,12.55
2018-09-16T02:33:02.554Z,12.56
2018-09-16T02:34:02.589Z,12.53
2018-09-16T02:35:02.565Z,12.38
2018-09-16T02:36:02.583Z,12.41
2018-09-16T02:37:02.558Z,12.39
2018-09-16T02:38:02.617Z,12.42
2018-09-16T02:39:02.533Z,12.45
2018-09-16T02:40:02.816Z,12.44
2018-09-16T02:41:02.628Z,12.44
2018-09-16T02:42:03.143Z,12.48
2018-09-16T02:43:02.653Z,12.42
2018-09-16T02:44:02.632Z,12.45
2018-09-16T02:45:02.594Z,12.44
2018-09-16T02:46:02.599Z,12.45
2018-09-16T02:47:02.627Z,12.46
2018-09-16T02:48:02.687Z,12.45
2018-09-16T02:49:02.574Z,12.44
2018-09-16T02:50:02.558Z,12.39
2018-09-16T02:51:02.867Z,12.31
2018-09-16T02:52:02.567Z,12.29
2018-09-16T02:53:02.569Z,12.31
2018-09-16T02:54:02.542Z,12.31
2018-09-16T02:55:02.746Z,12.25
2018-09-16T02:56:02.725Z,12.27
2018-09-16T02:57:02.577Z,12.24
2018-09-16T02:58:02.896Z,12.24
2018-09-16T02:59:02.672Z,12.23
2018-09-16T03:00:02.599Z,12.07
2018-09-16T03:01:02.977Z,12.08
2018-09-16T03:02:02.579Z,12.14
2018-09-16T03:03:02.727Z,12.17
2018-09-16T03:04:02.620Z,12.14
2018-09-16T03:05:02.628Z,12.16
2018-09-16T03:06:02.562Z,12.2
2018-09-16T03:07:02.573Z,12.17
2018-09-16T03:08:02.576Z,12.2
2018-09-16T03:09:02.705Z,12.18
2018-09-16T03:10:02.656Z,12.18
2018-09-16T03:11:02.743Z,12.1
2018-09-16T03:12:02.562Z,12.07
2018-09-16T03:13:02.787Z,12.03
2018-09-16T03:14:02.589Z,12.05
2018-09-16T03:15:02.582Z,12.07
2018-09-16T03:16:02.632Z,12.04
2018-09-16T03:17:02.676Z,12.03
2018-09-16T03:18:02.744Z,11.97
2018-09-16T03:19:02.692Z,11.98
2018-09-16T03:20:02.762Z,11.92
2018-09-16T03:21:02.597Z,11.87
2018-09-16T03:22:02.578Z,11.89
2018-09-16T03:23:02.587Z,11.89
2018-09-16T03:24:02.597Z,11.89
2018-09-16T03:25:02.592Z,11.9
2018-09-16T03:26:02.678Z,11.9
2018-09-16T03:27:02.606Z,11.89
2018-09-16T03:28:02.744Z,11.92
2018-09-16T03:29:02.619Z,11.93
2018-09-16T03:30:03.079Z,11.92
2018-09-16T03:31:02.629Z,11.93
2018-09-16T03:32:02.611Z,11.86
2018-09-16T03:33:02.618Z,11.89
2018-09-16T03:34:02.607Z,11.84
2018-09-16T03:35:02.598Z,11.8
2018-09-16T03:36:02.684Z,11.84
2018-09-16T03:37:02.579Z,11.82
2018-09-16T03:38:03.115Z,11.86
2018-09-16T03:39:02.588Z,11.83
2018-09-16T03:40:02.646Z,11.86
2018-09-16T03:41:02.641Z,11.84
2018-09-16T03:42:02.767Z,11.86
2018-09-16T03:43:02.596Z,11.89
2018-09-16T03:44:02.671Z,11.89
2018-09-16T03:45:02.765Z,11.92
2018-09-16T03:46:02.883Z,11.93
2018-09-16T03:47:02.695Z,11.9
2018-09-16T03:48:02.607Z,11.89
2018-09-16T03:49:08.590Z,11.9
2018-09-16T03:50:02.611Z,11.89
2018-09-16T03:51:02.633Z,11.84
2018-09-16T03:52:02.672Z,11.76
2018-09-16T03:53:02.744Z,11.75
2018-09-16T03:54:02.758Z,11.73
2018-09-16T03:55:02.635Z,11.72
2018-09-16T03:56:02.701Z,11.69
2018-09-16T03:57:02.597Z,11.69
2018-09-16T03:58:02.598Z,11.69
2018-09-16T03:59:02.589Z,11.69
2018-09-16T04:00:03.006Z,11.66
2018-09-16T04:01:02.674Z,11.64
2018-09-16T04:02:02.619Z,11.65
2018-09-16T04:03:02.743Z,11.68
2018-09-16T04:04:02.792Z,11.66
2018-09-16T04:05:02.614Z,11.69
2018-09-16T04:06:02.591Z,11.68
2018-09-16T04:07:02.745Z,11.66
2018-09-16T04:08:02.774Z,11.69
2018-09-16T04:09:02.588Z,11.66
2018-09-16T04:10:02.601Z,11.69
2018-09-16T04:11:02.633Z,11.66
2018-09-16T04:12:02.593Z,11.66
2018-09-16T04:13:02.631Z,11.65
2018-09-16T04:14:03.093Z,11.65
2018-09-16T04:15:02.629Z,11.64
2018-09-16T04:16:02.673Z,11.65
2018-09-16T04:17:03.367Z,11.64
2018-09-16T04:18:02.591Z,11.58
2018-09-16T04:19:02.628Z,11.59
2018-09-16T04:20:02.633Z,11.62
2018-09-16T04:21:02.839Z,11.61
2018-09-16T04:22:02.682Z,11.65
2018-09-16T04:23:02.635Z,11.64
2018-09-16T04:24:02.634Z,11.64
2018-09-16T04:25:02.633Z,11.66
2018-09-16T04:26:02.673Z,11.68
2018-09-16T04:27:02.656Z,11.69
2018-09-16T04:28:02.940Z,11.72
2018-09-16T04:29:02.694Z,11.7
2018-09-16T04:30:02.634Z,11.73
2018-09-16T04:31:02.620Z,11.7
2018-09-16T04:32:03.196Z,11.72
2018-09-16T04:33:02.777Z,11.72
2018-09-16T04:34:02.626Z,11.75
2018-09-16T04:35:02.629Z,11.75
2018-09-16T04:36:02.687Z,11.77
2018-09-16T04:37:02.651Z,11.8
2018-09-16T04:38:02.724Z,11.79
2018-09-16T04:39:03.012Z,11.83
2018-09-16T04:40:02.694Z,11.84
2018-09-16T04:41:02.618Z,11.87
2018-09-16T04:42:02.665Z,11.92
2018-09-16T04:43:02.615Z,11.92
2018-09-16T04:44:02.758Z,11.9
2018-09-16T04:45:02.617Z,11.94
2018-09-16T04:46:02.611Z,11.92
2018-09-16T04:47:02.761Z,11.92
2018-09-16T04:48:02.664Z,11.9
2018-09-16T04:49:02.780Z,11.92
2018-09-16T04:50:03.127Z,11.92
2018-09-16T04:51:02.619Z,11.89
2018-09-16T04:52:02.645Z,11.86
2018-09-16T04:53:02.623Z,11.87
2018-09-16T04:54:02.681Z,11.89
2018-09-16T04:55:02.649Z,11.89
2018-09-16T04:56:02.740Z,11.89
2018-09-16T04:57:02.645Z,11.9
2018-09-16T04:58:02.625Z,11.92
2018-09-16T04:59:02.678Z,11.9
2018-09-16T05:00:02.638Z,11.9
2018-09-16T05:01:02.823Z,11.9
2018-09-16T05:02:02.656Z,11.92
2018-09-16T05:03:02.636Z,11.93
2018-09-16T05:04:02.974Z,11.92
2018-09-16T05:05:02.632Z,11.9
2018-09-16T05:06:02.649Z,11.9
2018-09-16T05:07:02.619Z,11.9
2018-09-16T05:08:02.776Z,11.94
2018-09-16T05:09:02.682Z,11.97
2018-09-16T05:10:02.752Z,12
2018-09-16T05:11:02.645Z,11.98
2018-09-16T05:12:02.738Z,12
2018-09-16T05:13:02.661Z,12
2018-09-16T05:14:03.133Z,12
2018-09-16T05:15:03.055Z,12.04
2018-09-16T05:16:02.783Z,12.05
2018-09-16T05:17:02.628Z,12.07
2018-09-16T05:18:03.385Z,12.05
2018-09-16T05:19:02.982Z,12.07
2018-09-16T05:20:02.990Z,12.05
2018-09-16T05:21:02.633Z,12.01
2018-09-16T05:22:02.777Z,11.94
2018-09-16T05:23:02.689Z,11.76
2018-09-16T05:24:03.014Z,11.77
2018-09-16T05:25:02.738Z,11.82
2018-09-16T05:26:02.719Z,11.79
2018-09-16T05:27:02.650Z,11.75
2018-09-16T05:28:02.754Z,11.72
2018-09-16T05:29:02.720Z,11.72
2018-09-16T05:30:02.747Z,11.69
2018-09-16T05:31:03.123Z,11.66
2018-09-16T05:32:02.689Z,11.68
2018-09-16T05:33:02.672Z,11.7
2018-09-16T05:34:02.663Z,11.69
2018-09-16T05:35:02.707Z,11.7
2018-09-16T05:36:02.727Z,11.72
2018-09-16T05:37:02.694Z,11.72
2018-09-16T05:38:02.701Z,11.7
2018-09-16T05:39:03.143Z,11.72
2018-09-16T05:40:02.662Z,11.7
2018-09-16T05:41:02.883Z,11.7
2018-09-16T05:42:02.664Z,11.72
2018-09-16T05:43:02.707Z,11.75
2018-09-16T05:44:02.661Z,11.7
2018-09-16T05:45:03.056Z,11.72
2018-09-16T05:46:02.653Z,11.73
2018-09-16T05:47:02.896Z,11.76
2018-09-16T05:48:03.278Z,11.75
2018-09-16T05:49:02.797Z,11.8
2018-09-16T05:50:02.682Z,11.8
2018-09-16T05:51:02.789Z,11.83
2018-09-16T05:52:02.991Z,11.83
2018-09-16T05:53:03.237Z,11.84
2018-09-16T05:54:02.913Z,11.8
2018-09-16T05:55:02.708Z,11.82
2018-09-16T05:56:02.800Z,11.8
2018-09-16T05:57:02.828Z,11.83
2018-09-16T05:58:02.655Z,11.86
2018-09-16T05:59:02.852Z,11.89
2018-09-16T06:00:02.660Z,11.9
2018-09-16T06:01:02.709Z,11.84
2018-09-16T06:02:02.727Z,11.89
2018-09-16T06:03:02.794Z,11.87
2018-09-16T06:04:02.906Z,11.9
2018-09-16T06:05:02.910Z,11.96
2018-09-16T06:06:02.765Z,11.98
2018-09-16T06:07:02.942Z,12.01
2018-09-16T06:08:03.006Z,11.93
2018-09-16T06:09:02.647Z,12
2018-09-16T06:10:02.662Z,12.03
2018-09-16T06:11:02.688Z,12.07
2018-09-16T06:12:03.034Z,12.11
2018-09-16T06:13:02.689Z,12.18
2018-09-16T06:14:03.354Z,12.2
2018-09-16T06:15:02.659Z,12.23
2018-09-16T06:16:02.685Z,12.25
2018-09-16T06:17:02.650Z,12.31
2018-09-16T06:18:03.090Z,12.34
2018-09-16T06:19:02.665Z,12.35
2018-09-16T06:20:02.678Z,12.39
2018-09-16T06:21:02.679Z,12.45
2018-09-16T06:22:02.779Z,12.46
2018-09-16T06:23:02.691Z,12.51
2018-09-16T06:24:02.658Z,12.55
2018-09-16T06:25:02.876Z,12.56
2018-09-16T06:26:02.765Z,12.6
2018-09-16T06:27:02.702Z,12.62
2018-09-16T06:28:02.674Z,12.66
2018-09-16T06:29:03.267Z,12.67
2018-09-16T06:30:03.182Z,12.74
2018-09-16T06:31:02.745Z,12.74
2018-09-16T06:32:03.072Z,12.8
2018-09-16T06:33:02.688Z,12.83
2018-09-16T06:34:02.699Z,12.88
2018-09-16T06:35:02.979Z,12.91
2018-09-16T06:36:03.325Z,12.94
2018-09-16T06:37:02.698Z,13
2018-09-16T06:38:02.874Z,13.01
2018-09-16T06:39:02.788Z,13.07
2018-09-16T06:40:02.703Z,13.1
2018-09-16T06:41:02.689Z,13.13
2018-09-16T06:42:03.150Z,13.15
2018-09-16T06:43:02.674Z,13.18
2018-09-16T06:44:02.665Z,13.21
2018-09-16T06:45:02.713Z,13.28
2018-09-16T06:46:02.691Z,13.32
2018-09-16T06:47:02.980Z,13.34
2018-09-16T06:48:02.721Z,13.36
2018-09-16T06:49:02.757Z,13.41
2018-09-16T06:50:02.672Z,13.46
2018-09-16T06:51:03.271Z,13.49
2018-09-16T06:52:03.160Z,13.52
2018-09-16T06:53:02.981Z,13.57
2018-09-16T06:54:02.730Z,13.62
2018-09-16T06:55:02.713Z,13.66
2018-09-16T06:56:02.666Z,13.67
2018-09-16T06:57:02.681Z,13.73
2018-09-16T06:58:03.145Z,13.74
2018-09-16T06:59:02.720Z,13.79
2018-09-16T07:00:02.690Z,13.82
2018-09-16T07:01:02.676Z,13.87
2018-09-16T07:02:02.682Z,13.9
2018-09-16T07:03:02.745Z,13.96
2018-09-16T07:04:02.788Z,13.97
2018-09-16T07:05:03.195Z,14.05
2018-09-16T07:06:02.700Z,14.08
2018-09-16T07:07:02.750Z,14.12
2018-09-16T07:08:02.670Z,14.15
2018-09-16T07:09:03.108Z,14.18
2018-09-16T07:10:02.921Z,14.22
2018-09-16T07:11:02.767Z,14.27
2018-09-16T07:12:02.933Z,14.32
2018-09-16T07:13:03.161Z,14.38
2018-09-16T07:14:02.731Z,14.39
2018-09-16T07:15:03.179Z,14.43
2018-09-16T07:16:02.758Z,14.51
2018-09-16T07:17:03.071Z,14.56
2018-09-16T07:18:02.801Z,14.59
2018-09-16T07:19:02.729Z,14.66
2018-09-16T07:20:02.905Z,14.67
2018-09-16T07:21:02.986Z,14.74
2018-09-16T07:22:02.726Z,14.77
2018-09-16T07:23:02.755Z,14.8
2018-09-16T07:24:02.884Z,14.83
2018-09-16T07:25:02.850Z,14.88
2018-09-16T07:26:02.683Z,14.94
2018-09-16T07:27:02.711Z,14.97
2018-09-16T07:28:02.768Z,15
2018-09-16T07:29:02.716Z,15.04
2018-09-16T07:30:02.798Z,15.09
2018-09-16T07:31:02.700Z,15.12
2018-09-16T07:32:03.129Z,15.15
2018-09-16T07:33:03.097Z,15.19
2018-09-16T07:34:03.139Z,15.25
2018-09-16T07:35:02.755Z,15.29
2018-09-16T07:36:02.707Z,15.29
2018-09-16T07:37:02.695Z,15.32
2018-09-16T07:38:03.539Z,15.35
2018-09-16T07:39:02.778Z,15.42
2018-09-16T07:40:02.715Z,15.45
2018-09-16T07:41:02.885Z,15.49
2018-09-16T07:42:03.544Z,15.54
2018-09-16T07:43:03.055Z,15.54
2018-09-16T07:44:02.812Z,15.62
2018-09-16T07:45:03.068Z,15.6
2018-09-16T07:46:03.071Z,15.66
2018-09-16T07:47:02.853Z,15.7
2018-09-16T07:48:02.727Z,15.7
2018-09-16T07:49:02.734Z,15.76
2018-09-16T07:50:02.986Z,15.77
2018-09-16T07:51:02.721Z,15.81
2018-09-16T07:52:02.726Z,15.84
2018-09-16T07:53:02.888Z,15.87
2018-09-16T07:54:03.020Z,15.88
2018-09-16T07:55:02.925Z,15.92
2018-09-16T07:56:02.757Z,15.91
2018-09-16T07:57:02.750Z,15.98
2018-09-16T07:58:02.744Z,15.98
2018-09-16T07:59:02.774Z,15.97
2018-09-16T08:00:02.782Z,16.04
2018-09-16T08:01:03.026Z,16.04
2018-09-16T08:02:02.984Z,16.08
2018-09-16T08:03:02.732Z,16.05
2018-09-16T08:04:02.708Z,16.08
2018-09-16T08:05:02.760Z,16.12
2018-09-16T08:06:02.813Z,16.16
2018-09-16T08:07:02.801Z,16.19
2018-09-16T08:08:02.822Z,16.19
2018-09-16T08:09:02.847Z,16.25
2018-09-16T08:10:02.729Z,16.24
2018-09-16T08:11:02.726Z,16.28
2018-09-16T08:12:02.747Z,16.32
2018-09-16T08:13:02.793Z,16.35
2018-09-16T08:14:02.823Z,16.43
2018-09-16T08:15:02.813Z,16.47
2018-09-16T08:16:02.872Z,16.47
2018-09-16T08:17:02.765Z,16.49
2018-09-16T08:18:02.773Z,16.5
2018-09-16T08:19:02.738Z,16.6
2018-09-16T08:20:02.795Z,16.62
2018-09-16T08:21:03.451Z,16.63
2018-09-16T08:22:02.735Z,16.68
2018-09-16T08:23:02.781Z,16.73
2018-09-16T08:24:02.733Z,16.75
2018-09-16T08:25:03.039Z,16.78
2018-09-16T08:26:02.792Z,16.83
2018-09-16T08:27:02.758Z,16.86
2018-09-16T08:28:02.740Z,16.91
2018-09-16T08:29:03.061Z,16.95
2018-09-16T08:30:02.817Z,16.98
2018-09-16T08:35:03.133Z,17.19
2018-09-16T08:36:02.948Z,17.14
2018-09-16T08:37:03.342Z,17.16
2018-09-16T08:38:03.441Z,17.18
2018-09-16T08:39:03.101Z,17.21
2018-09-16T08:40:03.292Z,17.15
2018-09-16T08:41:02.935Z,17.22
2018-09-16T08:42:02.940Z,17.25
2018-09-16T08:43:02.949Z,17.3
2018-09-16T08:44:03.159Z,17.33
2018-09-16T08:45:03.145Z,17.39
2018-09-16T08:46:02.982Z,17.42
2018-09-16T08:47:03.005Z,17.43
2018-09-16T08:48:02.998Z,17.47
2018-09-16T08:49:03.122Z,17.54
2018-09-16T08:50:03.252Z,17.58
2018-09-16T08:51:03.208Z,17.67
2018-09-16T08:52:03.197Z,17.73
2018-09-16T08:53:02.948Z,17.71
2018-09-16T08:54:02.938Z,17.76
2018-09-16T08:55:03.086Z,17.78
2018-09-16T08:56:03.080Z,17.82
2018-09-16T08:57:03.114Z,17.92
2018-09-16T08:58:03.217Z,17.91
2018-09-16T09:00:33.139Z,17.95
2018-09-16T09:00:40.743Z,17.99
2018-09-16T09:01:40.789Z,18.04
2018-09-16T09:02:40.663Z,18.15
2018-09-16T09:03:40.625Z,18.17
2018-09-16T09:04:40.691Z,18.27
2018-09-16T09:05:41.150Z,18.36
2018-09-16T09:06:40.665Z,18.43
2018-09-16T09:07:40.624Z,18.44
2018-09-16T09:11:40.357Z,18.61
2018-09-16T09:12:40.793Z,18.66
2018-09-16T09:13:40.665Z,18.66
2018-09-16T09:14:41.461Z,18.7
2018-09-16T09:15:40.676Z,18.71
2018-09-16T09:16:40.651Z,18.77
2018-09-16T09:17:40.823Z,18.78
2018-09-16T09:18:40.654Z,18.78
2018-09-16T09:19:40.670Z,18.77
2018-09-16T09:20:40.742Z,18.81
2018-09-16T09:21:40.718Z,18.89
2018-09-16T09:22:41.307Z,18.98
2018-09-16T09:23:40.643Z,18.97
2018-09-16T09:24:40.644Z,18.98
2018-09-16T09:25:40.632Z,19.02
2018-09-16T09:26:40.887Z,19.08
2018-09-16T09:27:40.704Z,19.12
2018-09-16T09:28:40.754Z,19.15
2018-09-16T09:29:40.630Z,19.19
2018-09-16T09:30:40.724Z,19.19
2018-09-16T09:33:40.999Z,19.33
2018-09-16T09:34:40.674Z,19.37
2018-09-16T09:35:40.803Z,19.44
2018-09-16T09:39:40.681Z,19.57
2018-09-16T09:40:40.807Z,19.62
2018-09-16T09:41:40.673Z,19.67
2018-09-16T09:42:40.762Z,19.65
2018-09-16T09:43:40.641Z,19.65
2018-09-16T09:44:40.947Z,19.7
2018-09-16T09:45:40.701Z,19.72
2018-09-16T09:46:40.977Z,19.74
2018-09-16T09:47:40.699Z,19.81
2018-09-16T09:48:40.767Z,19.84
2018-09-16T09:49:40.667Z,19.91
2018-09-16T09:50:40.661Z,19.96
2018-09-16T09:51:40.742Z,19.99
2018-09-16T09:52:40.649Z,20.06
2018-09-16T09:53:40.776Z,20.09
2018-09-16T09:54:40.720Z,20.22
2018-09-16T09:55:40.676Z,20.2
2018-09-16T09:56:40.639Z,20.22
2018-09-16T09:57:41.136Z,20.26
2018-09-16T09:58:41.306Z,20.29
2018-09-16T09:59:40.636Z,20.32
2018-09-16T10:00:40.689Z,20.4
2018-09-16T10:01:40.692Z,20.4
2018-09-16T10:02:40.743Z,20.41
2018-09-16T10:03:41.080Z,20.51
2018-09-16T10:04:40.784Z,20.47
2018-09-16T10:05:41.096Z,20.55
2018-09-16T10:06:40.720Z,20.6
2018-09-16T10:07:40.832Z,20.58
2018-09-16T10:08:40.725Z,20.62
2018-09-16T10:09:40.807Z,20.65
2018-09-16T10:10:41.011Z,20.71
2018-09-16T10:11:40.722Z,20.71
2018-09-16T10:12:41.035Z,20.77
2018-09-16T10:13:40.765Z,20.79
2018-09-16T10:14:40.578Z,20.81
2018-09-16T10:15:41.607Z,20.82
2018-09-16T10:16:40.730Z,20.85
2018-09-16T10:17:40.623Z,20.88
2018-09-16T10:18:40.682Z,21.02
2018-09-16T10:19:40.644Z,21.02
2018-09-16T10:20:40.668Z,21.05
2018-09-16T10:21:40.640Z,21.07
2018-09-16T10:22:40.890Z,21.12
2018-09-16T10:23:40.675Z,21.12
2018-09-16T10:24:40.639Z,21.16
2018-09-16T10:25:40.618Z,21.15
2018-09-16T10:26:40.616Z,21.17
2018-09-16T10:27:40.623Z,21.16
2018-09-16T10:28:40.761Z,21.19
2018-09-16T10:29:41.156Z,21.34
2018-09-16T10:30:40.651Z,21.47
2018-09-16T10:31:41.066Z,21.43
2018-09-16T10:32:40.633Z,21.47
2018-09-16T10:33:41.055Z,21.49
2018-09-16T10:34:40.801Z,21.5
2018-09-16T10:35:40.867Z,21.51
2018-09-16T10:36:40.772Z,21.56
2018-09-16T10:37:40.702Z,21.62
2018-09-16T10:38:47.604Z,21.64
2018-09-16T10:39:41.295Z,21.67
2018-09-16T10:40:40.713Z,21.69
2018-09-16T10:41:40.605Z,21.72
2018-09-16T10:42:40.663Z,21.72
2018-09-16T10:43:41.019Z,21.75
2018-09-16T10:44:49.932Z,21.77
2018-09-16T10:45:40.733Z,21.78
2018-09-16T10:46:40.625Z,21.81
2018-09-16T10:47:40.641Z,21.98
2018-09-16T10:48:40.628Z,21.96
2018-09-16T10:49:40.610Z,22.06
2018-09-16T10:50:40.617Z,22.12
2018-09-16T10:51:45.859Z,22.19
2018-09-16T10:52:40.643Z,22.22
2018-09-16T10:53:40.626Z,22.22
2018-09-16T10:54:40.589Z,22.23
2018-09-16T10:55:43.019Z,22.27
2018-09-16T10:56:40.605Z,22.29
2018-09-16T10:57:40.649Z,22.31
2018-09-16T10:58:40.610Z,22.43
2018-09-16T10:59:40.648Z,22.36
2018-09-16T11:00:40.621Z,22.37
2018-09-16T11:01:40.602Z,22.44
2018-09-16T11:02:40.624Z,22.5
2018-09-16T11:03:40.636Z,22.6
2018-09-16T11:04:40.981Z,22.63
2018-09-16T11:05:41.111Z,22.63
2018-09-16T11:06:41.177Z,22.65
2018-09-16T11:07:40.879Z,22.7
2018-09-16T11:08:40.641Z,22.71
2018-09-16T11:09:41.263Z,22.71
2018-09-16T11:10:40.821Z,22.71
2018-09-16T11:11:40.632Z,22.76
2018-09-16T11:12:41.373Z,22.72
2018-09-16T11:13:40.625Z,22.88
2018-09-16T11:14:41.061Z,22.86
2018-09-16T11:15:41.000Z,22.92
2018-09-16T11:16:40.773Z,22.92
2018-09-16T11:17:40.717Z,22.94
2018-09-16T11:18:40.763Z,22.99
2018-09-16T11:19:46.536Z,23.01
2018-09-16T11:20:43.633Z,23.02
2018-09-16T11:21:41.531Z,23.03
2018-09-16T11:22:40.688Z,23.06
2018-09-16T11:23:40.611Z,23.07
2018-09-16T11:24:40.639Z,23.09
2018-09-16T11:25:40.618Z,23.15
2018-09-16T11:26:40.765Z,23.16
2018-09-16T11:27:40.686Z,23.15
2018-09-16T11:28:40.659Z,23.19
2018-09-16T11:29:40.937Z,23.19
2018-09-16T11:30:40.656Z,23.22
2018-09-16T11:31:40.640Z,23.25
2018-09-16T11:32:40.623Z,23.26
2018-09-16T11:33:40.741Z,23.32
2018-09-16T11:34:40.636Z,23.32
2018-09-16T11:35:40.970Z,23.33
2018-09-16T11:36:40.795Z,23.37
2018-09-16T11:37:40.732Z,23.4
2018-09-16T11:38:40.636Z,23.43
2018-09-16T11:39:40.644Z,23.46
2018-09-16T11:40:40.640Z,23.46
2018-09-16T11:41:40.608Z,23.48
2018-09-16T11:42:40.751Z,23.53
2018-09-16T11:43:40.616Z,23.57
2018-09-16T11:44:40.751Z,23.62
2018-09-16T11:45:40.652Z,23.61
2018-09-16T11:46:40.819Z,23.65
2018-09-16T11:47:40.587Z,23.67
2018-09-16T11:48:40.768Z,23.68
2018-09-16T11:49:40.637Z,23.74
2018-09-16T11:50:40.776Z,23.71
2018-09-16T11:51:41.422Z,23.78
2018-09-16T11:52:40.638Z,23.81
2018-09-16T11:53:40.817Z,23.74
2018-09-16T11:54:41.000Z,23.77
2018-09-16T11:55:40.711Z,23.81
2018-09-16T11:56:40.911Z,23.8
2018-09-16T11:57:40.921Z,23.81
2018-09-16T11:58:40.723Z,23.78
2018-09-16T11:59:40.745Z,23.85
2018-09-16T12:00:41.475Z,23.87
2018-09-16T12:01:40.707Z,23.88
2018-09-16T12:02:41.046Z,23.82
2018-09-16T12:03:41.875Z,23.81
2018-09-16T12:04:41.069Z,23.78
2018-09-16T12:05:40.785Z,23.78
2018-09-16T12:06:40.779Z,23.81
2018-09-16T12:07:40.780Z,23.95
2018-09-16T12:08:41.702Z,24.01
2018-09-16T12:09:40.642Z,24.02
2018-09-16T12:10:40.702Z,24.02
2018-09-16T12:11:40.824Z,24.05
2018-09-16T12:12:40.700Z,24.03
2018-09-16T12:13:41.736Z,24.08
2018-09-16T12:14:40.603Z,24.13
2018-09-16T12:15:40.733Z,24.08
2018-09-16T12:16:40.901Z,24.05
2018-09-16T12:17:40.785Z,24.06
2018-09-16T12:18:40.630Z,24.1
2018-09-16T12:19:40.790Z,24.17
2018-09-16T12:20:40.771Z,24.2
2018-09-16T12:21:40.599Z,24.26
2018-09-16T12:22:41.719Z,24.26
2018-09-16T12:23:40.659Z,24.29
2018-09-16T12:24:40.795Z,24.23
2018-09-16T12:25:40.646Z,24.21
2018-09-16T12:26:40.706Z,24.29
2018-09-16T12:27:40.818Z,24.3
2018-09-16T12:28:40.731Z,24.27
2018-09-16T12:29:40.833Z,24.27
2018-09-16T12:30:40.651Z,24.32
2018-09-16T12:31:40.732Z,24.26
2018-09-16T12:32:40.740Z,24.21
2018-09-16T12:33:40.821Z,24.24
2018-09-16T12:34:40.623Z,24.26
2018-09-16T12:35:40.658Z,24.32
2018-09-16T12:36:40.780Z,24.32
2018-09-16T12:37:40.670Z,24.35
2018-09-16T12:38:40.885Z,24.39
2018-09-16T12:39:40.623Z,24.37
2018-09-16T12:40:40.581Z,24.39
2018-09-16T12:41:40.798Z,24.37
2018-09-16T12:42:40.631Z,24.39
2018-09-16T12:43:40.724Z,24.4
2018-09-16T12:44:40.730Z,24.36
2018-09-16T12:45:40.663Z,24.39
2018-09-16T12:46:40.625Z,24.44
2018-09-16T12:47:40.736Z,24.39
2018-09-16T12:48:40.770Z,24.39
2018-09-16T12:49:40.622Z,24.42
2018-09-16T12:50:40.763Z,24.42
2018-09-16T12:51:40.984Z,24.37
2018-09-16T12:52:40.605Z,24.37
2018-09-16T12:53:41.331Z,24.53
2018-09-16T12:54:41.001Z,24.54
2018-09-16T12:55:40.701Z,24.57
2018-09-16T12:56:40.709Z,24.6
2018-09-16T12:57:40.617Z,24.63
2018-09-16T12:58:40.642Z,24.64
2018-09-16T12:59:41.031Z,24.67
2018-09-16T13:00:40.599Z,24.71
2018-09-16T13:01:40.805Z,24.75
2018-09-16T13:02:41.625Z,24.77
2018-09-16T13:03:40.745Z,24.77
2018-09-16T13:04:40.626Z,24.77
2018-09-16T13:05:41.685Z,24.77
2018-09-16T13:06:41.090Z,24.75
2018-09-16T13:07:40.682Z,24.75